sensor_id;sensor_type;location;lat;lon;timestamp;P1;durP1;ratioP1;P2;durP2;ratioP2
36547;SDS011;22551;52.206;4.856;2023-04-15T00:02:51;10.77;;;4.68;;
36547;SDS011;22551;52.206;4.856;2023-04-15T00:07:55;8.18;;;4.22;;
36547;SDS011;22551;52.206;4.856;2023-04-15T00:12:58;11.10;;;4.47;;
36547;SDS011;22551;52.206;4.856;2023-04-15T00:18:01;11.48;;;5.18;;
36547;SDS011;22551;52.206;4.856;2023-04-15T00:23:04;10.45;;;3.72;;
36547;SDS011;22551;52.206;4.856;2023-04-15T00:28:08;11.25;;;4.60;;
36547;SDS011;22551;52.206;4.856;2023-04-15T00:33:11;10.68;;;4.68;;
36547;SDS011;22551;52.206;4.856;2023-04-15T00:38:16;10.80;;;4.00;;
36547;SDS011;22551;52.206;4.856;2023-04-15T00:43:19;6.30;;;4.50;;
36547;SDS011;22551;52.206;4.856;2023-04-15T00:48:21;9.60;;;4.80;;
36547;SDS011;22551;52.206;4.856;2023-04-15T00:53:25;9.45;;;4.22;;
36547;SDS011;22551;52.206;4.856;2023-04-15T00:58:27;10.48;;;5.30;;
36547;SDS011;22551;52.206;4.856;2023-04-15T01:03:29;9.52;;;5.05;;
36547;SDS011;22551;52.206;4.856;2023-04-15T01:08:33;15.45;;;5.00;;
36547;SDS011;22551;52.206;4.856;2023-04-15T01:13:35;10.38;;;5.38;;
36547;SDS011;22551;52.206;4.856;2023-04-15T01:18:38;15.18;;;4.88;;
36547;SDS011;22551;52.206;4.856;2023-04-15T01:23:42;7.55;;;4.32;;
36547;SDS011;22551;52.206;4.856;2023-04-15T01:28:48;12.48;;;4.10;;
36547;SDS011;22551;52.206;4.856;2023-04-15T01:33:50;6.50;;;4.00;;
36547;SDS011;22551;52.206;4.856;2023-04-15T01:38:53;11.50;;;4.10;;
36547;SDS011;22551;52.206;4.856;2023-04-15T01:43:57;8.65;;;4.82;;
36547;SDS011;22551;52.206;4.856;2023-04-15T01:49:00;6.88;;;4.22;;
36547;SDS011;22551;52.206;4.856;2023-04-15T01:54:02;10.32;;;4.38;;
36547;SDS011;22551;52.206;4.856;2023-04-15T01:59:06;9.00;;;4.97;;
36547;SDS011;22551;52.206;4.856;2023-04-15T02:04:08;8.30;;;4.35;;
36547;SDS011;22551;52.206;4.856;2023-04-15T02:09:15;7.70;;;4.50;;
36547;SDS011;22551;52.206;4.856;2023-04-15T02:14:19;7.57;;;4.03;;
36547;SDS011;22551;52.206;4.856;2023-04-15T02:19:21;6.30;;;3.70;;
36547;SDS011;22551;52.206;4.856;2023-04-15T02:24:24;8.52;;;3.63;;
36547;SDS011;22551;52.206;4.856;2023-04-15T02:29:28;9.07;;;4.90;;
36547;SDS011;22551;52.206;4.856;2023-04-15T02:34:32;8.05;;;4.47;;
36547;SDS011;22551;52.206;4.856;2023-04-15T02:39:34;10.18;;;4.25;;
36547;SDS011;22551;52.206;4.856;2023-04-15T02:44:38;6.70;;;3.65;;
36547;SDS011;22551;52.206;4.856;2023-04-15T02:49:40;7.75;;;4.05;;
36547;SDS011;22551;52.206;4.856;2023-04-15T02:54:42;10.30;;;4.35;;
36547;SDS011;22551;52.206;4.856;2023-04-15T02:59:46;4.47;;;3.35;;
36547;SDS011;22551;52.206;4.856;2023-04-15T03:04:48;7.38;;;4.38;;
36547;SDS011;22551;52.206;4.856;2023-04-15T03:09:50;7.35;;;4.25;;
36547;SDS011;22551;52.206;4.856;2023-04-15T03:14:54;9.05;;;4.10;;
36547;SDS011;22551;52.206;4.856;2023-04-15T03:19:56;12.63;;;4.32;;
36547;SDS011;22551;52.206;4.856;2023-04-15T03:24:58;7.20;;;4.68;;
36547;SDS011;22551;52.206;4.856;2023-04-15T03:30:02;13.68;;;4.95;;
36547;SDS011;22551;52.206;4.856;2023-04-15T03:35:05;9.67;;;4.80;;
36547;SDS011;22551;52.206;4.856;2023-04-15T03:40:09;5.93;;;3.83;;
36547;SDS011;22551;52.206;4.856;2023-04-15T03:45:13;8.18;;;5.07;;
36547;SDS011;22551;52.206;4.856;2023-04-15T03:50:15;8.70;;;4.30;;
36547;SDS011;22551;52.206;4.856;2023-04-15T03:55:18;9.25;;;4.82;;
36547;SDS011;22551;52.206;4.856;2023-04-15T04:00:21;14.07;;;4.65;;
36547;SDS011;22551;52.206;4.856;2023-04-15T04:05:24;11.75;;;5.28;;
36547;SDS011;22551;52.206;4.856;2023-04-15T04:10:26;8.98;;;4.72;;
36547;SDS011;22551;52.206;4.856;2023-04-15T04:15:30;10.95;;;5.07;;
36547;SDS011;22551;52.206;4.856;2023-04-15T04:20:32;7.63;;;4.22;;
36547;SDS011;22551;52.206;4.856;2023-04-15T04:25:34;9.10;;;4.75;;
36547;SDS011;22551;52.206;4.856;2023-04-15T04:30:38;12.10;;;5.13;;
36547;SDS011;22551;52.206;4.856;2023-04-15T04:35:41;8.95;;;4.78;;
36547;SDS011;22551;52.206;4.856;2023-04-15T04:40:43;10.02;;;5.15;;
36547;SDS011;22551;52.206;4.856;2023-04-15T04:45:47;10.07;;;4.95;;
36547;SDS011;22551;52.206;4.856;2023-04-15T04:50:49;11.32;;;5.03;;
36547;SDS011;22551;52.206;4.856;2023-04-15T04:55:51;9.55;;;5.22;;
36547;SDS011;22551;52.206;4.856;2023-04-15T05:00:55;11.93;;;5.32;;
36547;SDS011;22551;52.206;4.856;2023-04-15T05:05:57;10.85;;;5.20;;
36547;SDS011;22551;52.206;4.856;2023-04-15T05:11:00;10.90;;;5.82;;
36547;SDS011;22551;52.206;4.856;2023-04-15T05:16:04;9.80;;;4.63;;
36547;SDS011;22551;52.206;4.856;2023-04-15T05:21:06;11.02;;;4.88;;
36547;SDS011;22551;52.206;4.856;2023-04-15T05:26:09;12.93;;;5.68;;
36547;SDS011;22551;52.206;4.856;2023-04-15T05:31:12;9.57;;;5.15;;
36547;SDS011;22551;52.206;4.856;2023-04-15T05:36:15;11.13;;;5.80;;
36547;SDS011;22551;52.206;4.856;2023-04-15T05:41:17;12.55;;;5.80;;
36547;SDS011;22551;52.206;4.856;2023-04-15T05:46:21;14.25;;;5.55;;
36547;SDS011;22551;52.206;4.856;2023-04-15T05:51:23;9.43;;;5.03;;
36547;SDS011;22551;52.206;4.856;2023-04-15T05:56:26;14.18;;;5.65;;
36547;SDS011;22551;52.206;4.856;2023-04-15T06:01:30;10.80;;;5.50;;
36547;SDS011;22551;52.206;4.856;2023-04-15T06:06:32;12.18;;;6.07;;
36547;SDS011;22551;52.206;4.856;2023-04-15T06:11:35;8.88;;;5.53;;
36547;SDS011;22551;52.206;4.856;2023-04-15T06:16:38;15.60;;;5.88;;
36547;SDS011;22551;52.206;4.856;2023-04-15T06:21:40;10.50;;;5.85;;
36547;SDS011;22551;52.206;4.856;2023-04-15T06:26:43;12.45;;;6.38;;
36547;SDS011;22551;52.206;4.856;2023-04-15T06:31:47;10.85;;;6.05;;
36547;SDS011;22551;52.206;4.856;2023-04-15T06:36:49;10.00;;;6.07;;
36547;SDS011;22551;52.206;4.856;2023-04-15T06:41:51;12.13;;;6.05;;
36547;SDS011;22551;52.206;4.856;2023-04-15T06:46:55;11.35;;;5.97;;
36547;SDS011;22551;52.206;4.856;2023-04-15T06:51:58;11.48;;;6.13;;
36547;SDS011;22551;52.206;4.856;2023-04-15T06:57:00;9.82;;;5.88;;
36547;SDS011;22551;52.206;4.856;2023-04-15T07:02:04;11.52;;;6.90;;
36547;SDS011;22551;52.206;4.856;2023-04-15T07:07:09;12.50;;;7.00;;
36547;SDS011;22551;52.206;4.856;2023-04-15T07:12:11;11.45;;;6.30;;
36547;SDS011;22551;52.206;4.856;2023-04-15T07:17:17;12.50;;;7.28;;
36547;SDS011;22551;52.206;4.856;2023-04-15T07:22:19;14.55;;;7.10;;
36547;SDS011;22551;52.206;4.856;2023-04-15T07:27:21;11.02;;;6.18;;
36547;SDS011;22551;52.206;4.856;2023-04-15T07:32:25;13.38;;;6.57;;
36547;SDS011;22551;52.206;4.856;2023-04-15T07:37:27;11.73;;;6.45;;
36547;SDS011;22551;52.206;4.856;2023-04-15T07:42:29;10.77;;;6.25;;
36547;SDS011;22551;52.206;4.856;2023-04-15T07:47:33;9.85;;;5.13;;
36547;SDS011;22551;52.206;4.856;2023-04-15T07:52:35;8.52;;;4.95;;
36547;SDS011;22551;52.206;4.856;2023-04-15T07:57:38;10.52;;;4.70;;
36547;SDS011;22551;52.206;4.856;2023-04-15T08:02:42;8.32;;;4.35;;
36547;SDS011;22551;52.206;4.856;2023-04-15T08:07:45;8.32;;;3.78;;
36547;SDS011;22551;52.206;4.856;2023-04-15T08:12:48;5.70;;;3.38;;
36547;SDS011;22551;52.206;4.856;2023-04-15T08:22:56;6.13;;;3.58;;
36547;SDS011;22551;52.206;4.856;2023-04-15T08:28:01;6.25;;;3.50;;
36547;SDS011;22551;52.206;4.856;2023-04-15T08:33:07;8.20;;;3.58;;
36547;SDS011;22551;52.206;4.856;2023-04-15T08:38:09;7.55;;;3.65;;
36547;SDS011;22551;52.206;4.856;2023-04-15T08:43:12;5.63;;;3.58;;
36547;SDS011;22551;52.206;4.856;2023-04-15T08:48:23;6.55;;;3.83;;
36547;SDS011;22551;52.206;4.856;2023-04-15T08:53:27;8.90;;;4.18;;
36547;SDS011;22551;52.206;4.856;2023-04-15T08:58:30;6.80;;;3.90;;
36547;SDS011;22551;52.206;4.856;2023-04-15T09:03:35;7.97;;;3.90;;
36547;SDS011;22551;52.206;4.856;2023-04-15T09:08:37;7.90;;;3.60;;
36547;SDS011;22551;52.206;4.856;2023-04-15T09:13:40;7.78;;;3.30;;
36547;SDS011;22551;52.206;4.856;2023-04-15T09:18:44;5.28;;;2.20;;
36547;SDS011;22551;52.206;4.856;2023-04-15T09:23:56;4.07;;;2.60;;
36547;SDS011;22551;52.206;4.856;2023-04-15T09:29:03;4.65;;;2.88;;
36547;SDS011;22551;52.206;4.856;2023-04-15T09:34:09;5.80;;;2.70;;
36547;SDS011;22551;52.206;4.856;2023-04-15T09:39:12;3.83;;;2.17;;
36547;SDS011;22551;52.206;4.856;2023-04-15T09:44:23;4.03;;;2.75;;
36547;SDS011;22551;52.206;4.856;2023-04-15T09:49:28;4.88;;;2.47;;
36547;SDS011;22551;52.206;4.856;2023-04-15T09:54:34;5.95;;;2.60;;
36547;SDS011;22551;52.206;4.856;2023-04-15T09:59:37;5.43;;;1.88;;
36547;SDS011;22551;52.206;4.856;2023-04-15T10:04:41;6.40;;;1.92;;
36547;SDS011;22551;52.206;4.856;2023-04-15T10:09:44;3.58;;;1.95;;
36547;SDS011;22551;52.206;4.856;2023-04-15T10:14:51;3.75;;;1.52;;
36547;SDS011;22551;52.206;4.856;2023-04-15T10:20:00;2.30;;;1.50;;
36547;SDS011;22551;52.206;4.856;2023-04-15T10:25:05;7.38;;;2.40;;
36547;SDS011;22551;52.206;4.856;2023-04-15T10:30:08;5.65;;;2.65;;
36547;SDS011;22551;52.206;4.856;2023-04-15T10:35:12;3.72;;;2.17;;
36547;SDS011;22551;52.206;4.856;2023-04-15T10:40:25;4.23;;;2.20;;
36547;SDS011;22551;52.206;4.856;2023-04-15T10:45:31;4.55;;;2.17;;
36547;SDS011;22551;52.206;4.856;2023-04-15T10:50:38;4.75;;;2.63;;
36547;SDS011;22551;52.206;4.856;2023-04-15T11:00:43;6.20;;;2.50;;
36547;SDS011;22551;52.206;4.856;2023-04-15T11:05:55;5.50;;;2.60;;
36547;SDS011;22551;52.206;4.856;2023-04-15T11:10:57;6.30;;;2.00;;
36547;SDS011;22551;52.206;4.856;2023-04-15T11:15:59;4.63;;;2.08;;
36547;SDS011;22551;52.206;4.856;2023-04-15T11:21:05;2.67;;;2.08;;
36547;SDS011;22551;52.206;4.856;2023-04-15T11:26:09;5.75;;;1.55;;
36547;SDS011;22551;52.206;4.856;2023-04-15T11:31:12;2.30;;;1.60;;
36547;SDS011;22551;52.206;4.856;2023-04-15T11:36:18;3.92;;;1.60;;
36547;SDS011;22551;52.206;4.856;2023-04-15T11:41:20;1.63;;;1.15;;
36547;SDS011;22551;52.206;4.856;2023-04-15T11:46:27;2.00;;;1.42;;
36547;SDS011;22551;52.206;4.856;2023-04-15T11:51:35;12.82;;;2.08;;
36547;SDS011;22551;52.206;4.856;2023-04-15T11:56:37;5.10;;;1.90;;
36547;SDS011;22551;52.206;4.856;2023-04-15T12:01:39;9.40;;;2.05;;
36547;SDS011;22551;52.206;4.856;2023-04-15T12:06:45;8.18;;;1.88;;
36547;SDS011;22551;52.206;4.856;2023-04-15T12:11:49;4.18;;;2.08;;
36547;SDS011;22551;52.206;4.856;2023-04-15T12:16:57;3.03;;;1.42;;
36547;SDS011;22551;52.206;4.856;2023-04-15T12:22:03;3.78;;;1.70;;
36547;SDS011;22551;52.206;4.856;2023-04-15T12:27:07;6.40;;;1.45;;
36547;SDS011;22551;52.206;4.856;2023-04-15T12:32:14;2.05;;;1.30;;
36547;SDS011;22551;52.206;4.856;2023-04-15T12:37:21;3.30;;;1.60;;
36547;SDS011;22551;52.206;4.856;2023-04-15T12:42:23;2.88;;;0.93;;
36547;SDS011;22551;52.206;4.856;2023-04-15T12:47:26;5.43;;;1.30;;
36547;SDS011;22551;52.206;4.856;2023-04-15T12:52:30;4.20;;;1.48;;
36547;SDS011;22551;52.206;4.856;2023-04-15T12:57:33;3.35;;;1.02;;
36547;SDS011;22551;52.206;4.856;2023-04-15T13:02:35;2.40;;;0.80;;
36547;SDS011;22551;52.206;4.856;2023-04-15T13:07:39;1.90;;;0.75;;
36547;SDS011;22551;52.206;4.856;2023-04-15T13:12:41;3.55;;;1.02;;
36547;SDS011;22551;52.206;4.856;2023-04-15T13:17:45;3.25;;;1.02;;
36547;SDS011;22551;52.206;4.856;2023-04-15T13:22:49;6.68;;;1.48;;
36547;SDS011;22551;52.206;4.856;2023-04-15T13:27:53;3.85;;;1.08;;
36547;SDS011;22551;52.206;4.856;2023-04-15T13:32:56;6.50;;;1.70;;
36547;SDS011;22551;52.206;4.856;2023-04-15T13:38:01;2.75;;;1.15;;
36547;SDS011;22551;52.206;4.856;2023-04-15T13:43:03;5.20;;;0.88;;
36547;SDS011;22551;52.206;4.856;2023-04-15T13:48:05;4.53;;;1.08;;
36547;SDS011;22551;52.206;4.856;2023-04-15T13:53:09;0.55;;;0.45;;
36547;SDS011;22551;52.206;4.856;2023-04-15T13:58:11;6.35;;;1.30;;
36547;SDS011;22551;52.206;4.856;2023-04-15T14:03:13;1.77;;;0.80;;
36547;SDS011;22551;52.206;4.856;2023-04-15T14:08:17;2.45;;;1.20;;
36547;SDS011;22551;52.206;4.856;2023-04-15T14:13:19;2.25;;;0.73;;
36547;SDS011;22551;52.206;4.856;2023-04-15T14:18:21;0.75;;;0.40;;
36547;SDS011;22551;52.206;4.856;2023-04-15T14:23:26;1.05;;;0.45;;
36547;SDS011;22551;52.206;4.856;2023-04-15T14:28:28;4.00;;;0.68;;
36547;SDS011;22551;52.206;4.856;2023-04-15T14:33:31;2.72;;;0.68;;
36547;SDS011;22551;52.206;4.856;2023-04-15T14:38:35;2.38;;;0.57;;
36547;SDS011;22551;52.206;4.856;2023-04-15T14:43:38;5.32;;;0.73;;
36547;SDS011;22551;52.206;4.856;2023-04-15T14:48:41;3.70;;;0.90;;
36547;SDS011;22551;52.206;4.856;2023-04-15T14:53:45;2.30;;;0.98;;
36547;SDS011;22551;52.206;4.856;2023-04-15T14:58:47;8.73;;;1.77;;
36547;SDS011;22551;52.206;4.856;2023-04-15T15:03:52;3.70;;;0.70;;
36547;SDS011;22551;52.206;4.856;2023-04-15T15:09:05;5.03;;;0.98;;
36547;SDS011;22551;52.206;4.856;2023-04-15T15:14:56;6.03;;;0.93;;
36547;SDS011;22551;52.206;4.856;2023-04-15T15:20:11;8.02;;;1.27;;
36547;SDS011;22551;52.206;4.856;2023-04-15T15:25:17;2.97;;;0.90;;
36547;SDS011;22551;52.206;4.856;2023-04-15T15:30:19;5.47;;;1.40;;
36547;SDS011;22551;52.206;4.856;2023-04-15T15:35:21;2.75;;;0.88;;
36547;SDS011;22551;52.206;4.856;2023-04-15T15:40:26;2.25;;;0.93;;
36547;SDS011;22551;52.206;4.856;2023-04-15T15:45:29;3.10;;;0.82;;
36547;SDS011;22551;52.206;4.856;2023-04-15T15:50:56;5.10;;;0.70;;
36547;SDS011;22551;52.206;4.856;2023-04-15T15:56:34;3.60;;;0.93;;
36547;SDS011;22551;52.206;4.856;2023-04-15T16:01:38;3.38;;;0.73;;
36547;SDS011;22551;52.206;4.856;2023-04-15T16:06:55;3.13;;;0.90;;
36547;SDS011;22551;52.206;4.856;2023-04-15T16:12:03;5.53;;;1.05;;
36547;SDS011;22551;52.206;4.856;2023-04-15T16:17:06;8.30;;;1.80;;
36547;SDS011;22551;52.206;4.856;2023-04-15T16:22:08;3.63;;;0.88;;
36547;SDS011;22551;52.206;4.856;2023-04-15T16:27:11;2.25;;;0.63;;
36547;SDS011;22551;52.206;4.856;2023-04-15T16:32:15;8.55;;;0.82;;
36547;SDS011;22551;52.206;4.856;2023-04-15T16:37:17;7.53;;;0.90;;
36547;SDS011;22551;52.206;4.856;2023-04-15T16:42:22;3.10;;;1.00;;
36547;SDS011;22551;52.206;4.856;2023-04-15T16:47:24;6.78;;;1.35;;
36547;SDS011;22551;52.206;4.856;2023-04-15T16:52:26;7.45;;;1.23;;
36547;SDS011;22551;52.206;4.856;2023-04-15T16:57:30;4.53;;;1.48;;
36547;SDS011;22551;52.206;4.856;2023-04-15T17:02:32;3.35;;;0.73;;
36547;SDS011;22551;52.206;4.856;2023-04-15T17:07:35;2.70;;;0.57;;
36547;SDS011;22551;52.206;4.856;2023-04-15T17:12:39;5.78;;;1.00;;
36547;SDS011;22551;52.206;4.856;2023-04-15T17:17:41;5.57;;;0.82;;
36547;SDS011;22551;52.206;4.856;2023-04-15T17:22:43;4.70;;;0.85;;
36547;SDS011;22551;52.206;4.856;2023-04-15T17:27:47;3.20;;;1.60;;
36547;SDS011;22551;52.206;4.856;2023-04-15T17:32:51;3.85;;;0.88;;
36547;SDS011;22551;52.206;4.856;2023-04-15T17:37:54;3.33;;;0.65;;
36547;SDS011;22551;52.206;4.856;2023-04-15T17:42:57;8.32;;;0.77;;
36547;SDS011;22551;52.206;4.856;2023-04-15T17:48:00;5.10;;;1.05;;
36547;SDS011;22551;52.206;4.856;2023-04-15T17:53:03;5.20;;;0.90;;
36547;SDS011;22551;52.206;4.856;2023-04-15T17:58:07;4.70;;;1.15;;
36547;SDS011;22551;52.206;4.856;2023-04-15T18:03:09;3.83;;;0.85;;
36547;SDS011;22551;52.206;4.856;2023-04-15T18:08:15;5.67;;;0.60;;
36547;SDS011;22551;52.206;4.856;2023-04-15T18:13:19;4.00;;;0.85;;
36547;SDS011;22551;52.206;4.856;2023-04-15T18:18:21;6.57;;;1.38;;
36547;SDS011;22551;52.206;4.856;2023-04-15T18:23:24;2.17;;;0.90;;
36547;SDS011;22551;52.206;4.856;2023-04-15T18:28:28;8.93;;;0.90;;
36547;SDS011;22551;52.206;4.856;2023-04-15T18:33:31;2.10;;;0.85;;
36547;SDS011;22551;52.206;4.856;2023-04-15T18:38:34;4.10;;;0.75;;
36547;SDS011;22551;52.206;4.856;2023-04-15T18:43:38;4.13;;;1.20;;
36547;SDS011;22551;52.206;4.856;2023-04-15T18:48:40;9.55;;;2.13;;
36547;SDS011;22551;52.206;4.856;2023-04-15T18:53:42;7.72;;;1.30;;
36547;SDS011;22551;52.206;4.856;2023-04-15T18:58:46;5.30;;;1.10;;
36547;SDS011;22551;52.206;4.856;2023-04-15T19:03:48;2.95;;;1.30;;
36547;SDS011;22551;52.206;4.856;2023-04-15T19:08:50;2.15;;;0.50;;
36547;SDS011;22551;52.206;4.856;2023-04-15T19:13:54;4.22;;;1.23;;
36547;SDS011;22551;52.206;4.856;2023-04-15T19:18:56;1.73;;;1.13;;
36547;SDS011;22551;52.206;4.856;2023-04-15T19:24:00;7.78;;;0.85;;
36547;SDS011;22551;52.206;4.856;2023-04-15T19:29:03;8.65;;;0.80;;
36547;SDS011;22551;52.206;4.856;2023-04-15T19:34:05;3.25;;;0.88;;
36547;SDS011;22551;52.206;4.856;2023-04-15T19:39:08;6.35;;;1.40;;
36547;SDS011;22551;52.206;4.856;2023-04-15T19:44:12;11.80;;;1.52;;
36547;SDS011;22551;52.206;4.856;2023-04-15T19:49:14;5.47;;;1.00;;
36547;SDS011;22551;52.206;4.856;2023-04-15T19:54:17;3.85;;;0.90;;
36547;SDS011;22551;52.206;4.856;2023-04-15T19:59:23;4.50;;;0.50;;
36547;SDS011;22551;52.206;4.856;2023-04-15T20:04:25;3.13;;;0.50;;
36547;SDS011;22551;52.206;4.856;2023-04-15T20:09:28;6.80;;;0.88;;
36547;SDS011;22551;52.206;4.856;2023-04-15T20:14:31;3.65;;;1.05;;
36547;SDS011;22551;52.206;4.856;2023-04-15T20:19:34;5.50;;;0.60;;
36547;SDS011;22551;52.206;4.856;2023-04-15T20:24:36;5.53;;;0.73;;
36547;SDS011;22551;52.206;4.856;2023-04-15T20:29:42;2.72;;;0.57;;
36547;SDS011;22551;52.206;4.856;2023-04-15T20:34:44;1.65;;;0.50;;
36547;SDS011;22551;52.206;4.856;2023-04-15T20:39:47;6.60;;;0.70;;
36547;SDS011;22551;52.206;4.856;2023-04-15T20:44:51;9.20;;;0.70;;
36547;SDS011;22551;52.206;4.856;2023-04-15T20:49:53;4.53;;;0.70;;
36547;SDS011;22551;52.206;4.856;2023-04-15T20:54:56;3.65;;;0.52;;
36547;SDS011;22551;52.206;4.856;2023-04-15T21:00:00;4.20;;;1.17;;
36547;SDS011;22551;52.206;4.856;2023-04-15T21:05:03;5.93;;;0.98;;
36547;SDS011;22551;52.206;4.856;2023-04-15T21:10:06;4.57;;;0.60;;
36547;SDS011;22551;52.206;4.856;2023-04-15T21:15:11;5.38;;;1.65;;
36547;SDS011;22551;52.206;4.856;2023-04-15T21:20:14;4.28;;;1.00;;
36547;SDS011;22551;52.206;4.856;2023-04-15T21:25:17;4.80;;;0.85;;
36547;SDS011;22551;52.206;4.856;2023-04-15T21:30:21;5.03;;;0.85;;
36547;SDS011;22551;52.206;4.856;2023-04-15T21:35:24;0.93;;;0.52;;
36547;SDS011;22551;52.206;4.856;2023-04-15T21:40:28;5.60;;;1.27;;
36547;SDS011;22551;52.206;4.856;2023-04-15T21:45:31;2.40;;;1.05;;
36547;SDS011;22551;52.206;4.856;2023-04-15T21:50:35;5.30;;;0.80;;
36547;SDS011;22551;52.206;4.856;2023-04-15T21:55:37;3.80;;;0.65;;
36547;SDS011;22551;52.206;4.856;2023-04-15T22:00:41;7.00;;;1.60;;
36547;SDS011;22551;52.206;4.856;2023-04-15T22:05:44;11.20;;;1.65;;
36547;SDS011;22551;52.206;4.856;2023-04-15T22:10:47;5.22;;;1.13;;
36547;SDS011;22551;52.206;4.856;2023-04-15T22:15:51;9.27;;;1.38;;
36547;SDS011;22551;52.206;4.856;2023-04-15T22:20:53;9.13;;;1.50;;
36547;SDS011;22551;52.206;4.856;2023-04-15T22:25:57;4.00;;;1.50;;
36547;SDS011;22551;52.206;4.856;2023-04-15T22:31:05;8.52;;;1.40;;
36547;SDS011;22551;52.206;4.856;2023-04-15T22:36:07;9.50;;;1.40;;
36547;SDS011;22551;52.206;4.856;2023-04-15T22:41:10;5.28;;;1.30;;
36547;SDS011;22551;52.206;4.856;2023-04-15T22:46:13;4.43;;;1.40;;
36547;SDS011;22551;52.206;4.856;2023-04-15T22:51:19;9.95;;;2.55;;
36547;SDS011;22551;52.206;4.856;2023-04-15T22:56:22;10.18;;;2.03;;
36547;SDS011;22551;52.206;4.856;2023-04-15T23:01:26;8.10;;;1.70;;
36547;SDS011;22551;52.206;4.856;2023-04-15T23:06:28;11.18;;;2.72;;
36547;SDS011;22551;52.206;4.856;2023-04-15T23:11:33;8.07;;;1.73;;
36547;SDS011;22551;52.206;4.856;2023-04-15T23:16:38;10.60;;;2.00;;
36547;SDS011;22551;52.206;4.856;2023-04-15T23:21:41;11.25;;;2.35;;
36547;SDS011;22551;52.206;4.856;2023-04-15T23:26:47;8.52;;;1.52;;
36547;SDS011;22551;52.206;4.856;2023-04-15T23:31:55;14.13;;;2.20;;
36547;SDS011;22551;52.206;4.856;2023-04-15T23:36:58;23.85;;;2.30;;
36547;SDS011;22551;52.206;4.856;2023-04-15T23:42:00;7.22;;;1.83;;
36547;SDS011;22551;52.206;4.856;2023-04-15T23:47:10;12.98;;;1.90;;
36547;SDS011;22551;52.206;4.856;2023-04-15T23:52:12;4.07;;;1.48;;
36547;SDS011;22551;52.206;4.856;2023-04-15T23:57:15;8.95;;;2.13;;
